Aérodrome :
LOGIN :

S'inscrire | Disclaimer

   EN    FR    IT 

 










Légende :    VFR   VFR Marginal   IFR   IFR Intensif   IFR Très Intensif
Visi : 
Plafond : 
>= 8 km
>= 3000ft
5 à 8 km
1000 à 3000 ft
1500m à 5 km
500 à 1000 ft
800 à 1500m
200 à 500 ft
< 800m
< 200 ft
Symboles :   Orages  Brouillard  Fortes neiges  Fortes précipitations  Vent > 20 kt
SIGMETs :   Divers  Orages  Givrage  Turbulence  Onde Orograph.  Cendres Volcan.







- Altitude de l'aérodrome : 20 ft
- Code IATA : BJA


DAAE - Soummam - Bejaia

DERNIER METAR :
  • 280700Z 26004KT 9000 FEW023 28/19 Q1009

METARs EXPIRÉS :
  • 280600Z 26003KT 7000 SCT023 25/19 Q1009
  • 280500Z 00000KT 8000 FEW023 SCT040 24/20 Q1008

TAF TAF DAAE
Valide du 28 à 06h jusqu'au 29 à 06h UTC


280500Z 2806/2906 23009KT 8000 FEW023 SCT040
PROB40
TEMPO 2806/2810 FEW026CB
BECMG 2808/2810 30015KT
TEMPO 2808/2821 31020G40KT
BECMG 2821/2824 24009KT
Pas de NOTAMs connus pour ce terrain.



MET'MAP, la Météo Aéronautique d'un coup d'oeil ! - Copyright ORBIFLY Décembre 2007 - Disclaimer

ORBIFLY MET'MAP TEAM :

Programmation & Développement : Alexandra Zaïnal
Conception & Développement : Baudouin d'Aumeries
Co-Programmation & Développement : Marc-Olivier Méhu
Soutien technique & logistique : Manuel Goepfert

Contact : metmap@orbifly.com




SOURCES & CREDITS :

   NOAA